Terminal Aerodrome Forecast
Issued by NWS

Home | Current Version | Previous Version | Text Only | Print | Product List | Glossary On
Versions: 1 2 3 4 5 6 7 8 9 10 11 12 13 14 15 16 17
000
FTUS41 KLWX 211122
TAFMTN
TAF
KMTN 211122Z 2112/2212 18005KT P6SM BKN250 WS020/22038KT
     FM211600 17010G18KT P6SM BKN250
     FM212300 19007KT P6SM BKN250
     FM220200 20006KT P6SM BKN050
     FM220800 VRB04KT P6SM BKN050
     FM221100 28006KT P6SM SCT050 SCT250=

USA.gov is the U.S. government's official web portal to all federal, state and local government web resources and services.